createdAt,value
2017-02-09T00:00:49.414Z,0
2017-02-09T00:02:00.145Z,0
2017-02-09T00:03:10.865Z,0
2017-02-09T00:04:21.828Z,0
2017-02-09T00:05:31.757Z,0
2017-02-09T00:06:42.468Z,0
2017-02-09T00:07:53.033Z,0
2017-02-09T00:09:03.751Z,0
2017-02-09T00:10:14.318Z,0
2017-02-09T00:11:25.034Z,0
2017-02-09T00:12:35.758Z,0
2017-02-09T00:13:46.472Z,0
2017-02-09T00:14:56.788Z,0
2017-02-09T00:16:07.754Z,0
2017-02-09T00:17:18.082Z,0
2017-02-09T00:18:28.789Z,0
2017-02-09T00:19:39.498Z,0
2017-02-09T00:20:50.211Z,0
2017-02-09T00:22:01.223Z,0
2017-02-09T00:23:11.946Z,0
2017-02-09T00:24:22.666Z,0
2017-02-09T00:25:32.596Z,0
2017-02-09T00:26:43.354Z,0
2017-02-09T00:27:54.365Z,0
2017-02-09T00:29:05.082Z,0
2017-02-09T00:30:15.395Z,0
2017-02-09T00:31:25.325Z,0
2017-02-09T00:32:35.248Z,0
2017-02-09T00:33:46.226Z,0
2017-02-09T00:34:56.934Z,0
2017-02-09T00:36:07.261Z,0
2017-02-09T00:37:16.788Z,0
2017-02-09T00:38:27.511Z,0
2017-02-09T00:39:38.087Z,0
2017-02-09T00:40:48.800Z,0
2017-02-09T00:41:59.508Z,0
2017-02-09T00:43:10.222Z,0
2017-02-09T00:44:20.938Z,0
2017-02-09T00:45:31.556Z,0
2017-02-09T00:46:42.265Z,0
2017-02-09T00:47:52.183Z,0
2017-02-09T00:49:02.506Z,0
2017-02-09T00:50:13.214Z,0
2017-02-09T00:51:24.231Z,0
2017-02-09T00:52:34.950Z,0
2017-02-09T00:53:45.671Z,0
2017-02-09T00:54:56.393Z,0
2017-02-09T00:56:07.120Z,0
2017-02-09T00:57:18.081Z,0
2017-02-09T00:58:28.396Z,0
2017-02-09T00:59:39.120Z,0
2017-02-09T01:00:49.828Z,0
2017-02-09T01:02:00.550Z,0
2017-02-09T01:03:11.511Z,0
2017-02-09T01:04:22.230Z,0
2017-02-09T01:05:32.549Z,0
2017-02-09T01:06:43.274Z,0
2017-02-09T01:07:54.000Z,0
2017-02-09T01:09:04.973Z,0
2017-02-09T01:10:15.700Z,0
2017-02-09T01:11:26.415Z,0
2017-02-09T01:12:36.348Z,0
2017-02-09T01:13:47.066Z,0
2017-02-09T01:14:58.039Z,0
2017-02-09T01:16:08.909Z,0
2017-02-09T01:17:20.227Z,0
2017-02-09T01:18:30.934Z,0
2017-02-09T01:19:41.248Z,0
2017-02-09T01:20:52.214Z,0
2017-02-09T01:22:01.742Z,0
2017-02-09T01:23:12.471Z,0
2017-02-09T01:24:23.187Z,0
2017-02-09T01:25:33.904Z,0
2017-02-09T01:26:44.480Z,0
2017-02-09T01:27:54.400Z,0
2017-02-09T01:29:05.117Z,0
2017-02-09T01:30:15.443Z,0
2017-02-09T01:31:26.156Z,0
2017-02-09T01:32:37.120Z,0
2017-02-09T01:33:47.827Z,0
2017-02-09T01:34:58.557Z,0
2017-02-09T01:36:09.267Z,0
2017-02-09T01:37:19.975Z,0
2017-02-09T01:38:30.998Z,0
2017-02-09T01:39:41.709Z,0
2017-02-09T01:40:52.026Z,0
2017-02-09T01:42:02.333Z,0
2017-02-09T01:43:12.641Z,0
2017-02-09T01:44:23.629Z,0
2017-02-09T01:45:33.551Z,0
2017-02-09T01:46:43.073Z,0
2017-02-09T01:47:53.386Z,0
2017-02-09T01:49:03.688Z,0
2017-02-09T01:50:13.502Z,0
2017-02-09T01:51:24.211Z,0
2017-02-09T01:52:34.912Z,0
2017-02-09T01:53:45.231Z,0
2017-02-09T01:54:55.545Z,0
2017-02-09T01:56:06.104Z,0
2017-02-09T01:57:16.420Z,0
2017-02-09T01:58:27.130Z,0
2017-02-09T01:59:37.853Z,0
2017-02-09T02:00:48.160Z,0
2017-02-09T02:01:58.325Z,0
2017-02-09T02:03:09.036Z,0
2017-02-09T02:04:18.953Z,0
2017-02-09T02:05:29.669Z,0
2017-02-09T02:06:40.377Z,0
2017-02-09T02:07:50.979Z,0
2017-02-09T02:09:01.277Z,0
2017-02-09T02:10:11.991Z,0
2017-02-09T02:11:22.700Z,0
2017-02-09T02:12:33.408Z,0
2017-02-09T02:13:43.624Z,0
2017-02-09T02:14:53.532Z,0
2017-02-09T02:16:03.836Z,0
2017-02-09T02:17:13.360Z,0
2017-02-09T02:18:23.664Z,0
2017-02-09T02:19:34.272Z,0
2017-02-09T02:20:44.187Z,0
2017-02-09T02:21:54.096Z,0
2017-02-09T02:23:04.022Z,0
2017-02-09T02:24:13.937Z,0
2017-02-09T02:25:24.896Z,0
2017-02-09T02:26:35.609Z,0
2017-02-09T02:27:45.916Z,0
2017-02-09T02:28:56.214Z,0
2017-02-09T02:30:06.533Z,0
2017-02-09T02:31:17.501Z,0
2017-02-09T02:32:28.200Z,0
2017-02-09T02:33:38.512Z,0
2017-02-09T02:34:48.821Z,0
2017-02-09T02:35:58.737Z,0
2017-02-09T02:37:09.363Z,0
2017-02-09T02:38:19.677Z,0
2017-02-09T02:39:29.996Z,0
2017-02-09T02:40:39.934Z,0
2017-02-09T02:41:50.631Z,0
2017-02-09T02:43:00.397Z,0
2017-02-09T02:44:10.712Z,0
2017-02-09T02:45:21.413Z,0
2017-02-09T02:46:31.522Z,0
2017-02-09T02:47:41.436Z,0
2017-02-09T02:48:51.653Z,0
2017-02-09T02:50:02.348Z,0
2017-02-09T02:51:12.715Z,0
2017-02-09T02:52:23.419Z,0
2017-02-09T02:53:32.933Z,0
2017-02-09T02:54:43.940Z,0
2017-02-09T02:55:54.246Z,0
2017-02-09T02:57:04.556Z,0
2017-02-09T02:58:15.292Z,0
2017-02-09T02:59:26.005Z,0
2017-02-09T03:00:35.769Z,0
2017-02-09T03:01:46.466Z,0
2017-02-09T03:02:56.377Z,0
2017-02-09T03:04:06.291Z,0
2017-02-09T03:05:16.205Z,0
2017-02-09T03:06:27.169Z,0
2017-02-09T03:07:37.871Z,0
2017-02-09T03:08:47.775Z,0
2017-02-09T03:09:58.085Z,0
2017-02-09T03:11:07.998Z,0
2017-02-09T03:12:18.553Z,0
2017-02-09T03:13:29.463Z,0
2017-02-09T03:14:39.806Z,0
2017-02-09T03:15:50.502Z,0
2017-02-09T03:17:01.206Z,0
2017-02-09T03:18:11.421Z,0
2017-02-09T03:19:22.124Z,0
2017-02-09T03:20:32.445Z,0
2017-02-09T03:21:43.154Z,0
2017-02-09T03:22:53.467Z,0
2017-02-09T03:24:04.466Z,0
2017-02-09T03:25:14.774Z,0
2017-02-09T03:26:25.074Z,0
2017-02-09T03:27:36.390Z,0
2017-02-09T03:28:46.704Z,0
2017-02-09T03:29:57.719Z,0
2017-02-09T03:31:08.658Z,0
2017-02-09T03:32:18.964Z,0
2017-02-09T03:33:29.677Z,0
2017-02-09T03:34:39.987Z,0
2017-02-09T03:35:50.604Z,0
2017-02-09T03:37:00.920Z,0
2017-02-09T03:38:10.831Z,0
2017-02-09T03:39:21.554Z,0
2017-02-09T03:40:32.254Z,0
2017-02-09T03:41:42.029Z,0
2017-02-09T03:42:52.729Z,0
2017-02-09T03:44:03.045Z,0
2017-02-09T03:45:12.969Z,0
2017-02-09T03:46:22.883Z,0
2017-02-09T03:47:33.484Z,0
2017-02-09T03:48:44.177Z,0
2017-02-09T03:49:54.085Z,0
2017-02-09T03:51:04.396Z,0
2017-02-09T03:52:14.709Z,0
2017-02-09T03:53:25.681Z,0
2017-02-09T03:54:35.986Z,0
2017-02-09T03:55:46.697Z,0
2017-02-09T03:56:57.007Z,0
2017-02-09T03:58:07.720Z,0
2017-02-09T03:59:18.287Z,0
2017-02-09T04:00:28.603Z,0
2017-02-09T04:01:38.911Z,0
2017-02-09T04:02:49.219Z,0
2017-02-09T04:03:59.926Z,0
2017-02-09T04:05:10.095Z,0
2017-02-09T04:06:20.443Z,0
2017-02-09T04:07:30.360Z,0
2017-02-09T04:08:40.665Z,0
2017-02-09T04:09:51.371Z,0
2017-02-09T04:11:02.323Z,0
2017-02-09T04:12:12.627Z,0
2017-02-09T04:13:22.932Z,0
2017-02-09T04:14:33.254Z,0
2017-02-09T04:15:43.960Z,0
2017-02-09T04:16:54.575Z,0
2017-02-09T04:18:05.283Z,0
2017-02-09T04:19:15.593Z,0
2017-02-09T04:20:25.906Z,0
2017-02-09T04:21:36.614Z,0
2017-02-09T04:22:47.652Z,0
2017-02-09T04:23:57.564Z,0
2017-02-09T04:25:07.876Z,0
2017-02-09T04:26:18.585Z,0
2017-02-09T04:27:29.311Z,0
2017-02-09T04:28:39.916Z,0
2017-02-09T04:29:50.623Z,0
2017-02-09T04:31:01.334Z,0
2017-02-09T04:32:12.044Z,0
2017-02-09T04:33:22.760Z,0
2017-02-09T04:34:33.762Z,0
2017-02-09T04:35:44.465Z,0
2017-02-09T04:36:54.777Z,0
2017-02-09T04:38:05.084Z,0
2017-02-09T04:39:15.004Z,0
2017-02-09T04:40:26.034Z,0
2017-02-09T04:41:35.951Z,0
2017-02-09T04:42:45.480Z,0
2017-02-09T04:43:55.846Z,0
2017-02-09T04:45:06.171Z,0
2017-02-09T04:46:16.338Z,0
2017-02-09T04:47:27.038Z,0
2017-02-09T04:48:37.346Z,0
2017-02-09T04:49:47.661Z,0
2017-02-09T04:50:58.372Z,0
2017-02-09T04:52:08.930Z,0
2017-02-09T04:53:18.843Z,0
2017-02-09T04:54:29.153Z,0
2017-02-09T04:55:39.464Z,0
2017-02-09T04:56:49.775Z,0
2017-02-09T04:58:00.783Z,0
2017-02-09T04:59:10.703Z,0
2017-02-09T05:00:21.413Z,0
2017-02-09T05:01:31.729Z,0
2017-02-09T05:02:41.653Z,0
2017-02-09T05:03:51.827Z,0
2017-02-09T05:05:02.528Z,0
2017-02-09T05:06:12.837Z,0
2017-02-09T05:07:23.535Z,0
2017-02-09T05:08:33.458Z,0
2017-02-09T05:09:43.622Z,0
2017-02-09T05:10:53.931Z,0
2017-02-09T05:12:05.075Z,0
2017-02-09T05:13:15.782Z,0
2017-02-09T05:14:26.091Z,0
2017-02-09T05:15:36.705Z,0
2017-02-09T05:16:47.023Z,0
2017-02-09T05:17:57.330Z,0
2017-02-09T05:19:08.034Z,0
2017-02-09T05:20:18.360Z,0
2017-02-09T05:21:28.911Z,0
2017-02-09T05:22:39.222Z,0
2017-02-09T05:23:49.527Z,0
2017-02-09T05:24:59.837Z,0
2017-02-09T05:26:10.549Z,0
2017-02-09T05:27:22.418Z,0
2017-02-09T05:28:32.347Z,0
2017-02-09T05:29:43.058Z,0
2017-02-09T05:30:53.766Z,0
2017-02-09T05:32:04.510Z,0
2017-02-09T05:33:15.064Z,0
2017-02-09T05:34:25.365Z,0
2017-02-09T05:35:35.288Z,0
2017-02-09T05:36:45.996Z,0
2017-02-09T05:37:56.692Z,0
2017-02-09T05:39:07.253Z,0
2017-02-09T05:40:17.566Z,0
2017-02-09T05:41:28.290Z,0
2017-02-09T05:42:38.603Z,0
2017-02-09T05:43:49.311Z,0
2017-02-09T05:45:00.322Z,0
2017-02-09T05:46:10.635Z,0
2017-02-09T05:47:20.559Z,0
2017-02-09T05:48:31.275Z,0
2017-02-09T05:49:41.585Z,0
2017-02-09T05:50:52.155Z,0
2017-02-09T05:52:02.473Z,0
2017-02-09T05:53:12.777Z,0
2017-02-09T05:54:23.095Z,0
2017-02-09T05:55:33.403Z,0
2017-02-09T05:56:44.017Z,0
2017-02-09T05:57:54.728Z,0
2017-02-09T05:59:04.251Z,0
2017-02-09T06:00:14.581Z,0
2017-02-09T06:01:25.304Z,0
2017-02-09T06:02:35.950Z,0
2017-02-09T06:03:46.661Z,0
2017-02-09T06:04:56.961Z,0
2017-02-09T06:06:07.697Z,0
2017-02-09T06:07:18.417Z,0
2017-02-09T06:08:29.028Z,0
2017-02-09T06:09:39.727Z,0
2017-02-09T06:10:50.043Z,0
2017-02-09T06:12:00.753Z,0
2017-02-09T06:13:10.670Z,0
2017-02-09T06:14:21.829Z,4
2017-02-09T06:15:32.567Z,4
2017-02-09T06:16:42.893Z,0
2017-02-09T06:17:53.613Z,4
2017-02-09T06:19:04.341Z,4
2017-02-09T06:20:14.507Z,4
2017-02-09T06:21:24.429Z,4
2017-02-09T06:22:34.388Z,4
2017-02-09T06:23:44.709Z,8
2017-02-09T06:24:54.643Z,8
2017-02-09T06:26:04.811Z,8
2017-02-09T06:27:15.121Z,12
2017-02-09T06:28:24.662Z,12
2017-02-09T06:29:34.980Z,12
2017-02-09T06:30:45.295Z,16
2017-02-09T06:31:56.311Z,20
2017-02-09T06:33:07.054Z,20
2017-02-09T06:34:17.374Z,20
2017-02-09T06:35:28.078Z,24
2017-02-09T06:36:38.791Z,28
2017-02-09T06:37:49.758Z,32
2017-02-09T06:39:00.075Z,32
2017-02-09T06:40:10.791Z,36
2017-02-09T06:41:21.515Z,40
2017-02-09T06:42:31.854Z,40
2017-02-09T06:43:42.861Z,44
2017-02-09T06:44:53.592Z,48
2017-02-09T06:46:04.343Z,52
2017-02-09T06:47:14.271Z,56
2017-02-09T06:48:24.996Z,60
2017-02-09T06:49:34.772Z,64
2017-02-09T06:50:45.479Z,64
2017-02-09T06:51:55.412Z,68
2017-02-09T06:53:05.370Z,72
2017-02-09T06:54:16.093Z,76
2017-02-09T06:55:27.072Z,80
2017-02-09T06:56:37.788Z,84
2017-02-09T06:57:48.503Z,88
2017-02-09T06:58:59.229Z,96
2017-02-09T07:00:09.148Z,100
2017-02-09T07:01:19.709Z,108
2017-02-09T07:02:30.448Z,112
2017-02-09T07:03:41.171Z,116
2017-02-09T07:04:51.500Z,116
2017-02-09T07:06:02.284Z,124
2017-02-09T07:07:13.241Z,132
2017-02-09T07:08:23.558Z,136
2017-02-09T07:09:34.280Z,140
2017-02-09T07:10:44.658Z,144
2017-02-09T07:11:54.572Z,152
2017-02-09T07:13:05.186Z,160
2017-02-09T07:14:15.109Z,164
2017-02-09T07:15:25.835Z,168
2017-02-09T07:16:36.543Z,172
2017-02-09T07:17:46.889Z,180
2017-02-09T07:18:57.569Z,184
2017-02-09T07:20:08.283Z,188
2017-02-09T07:21:17.833Z,196
2017-02-09T07:22:28.147Z,204
2017-02-09T07:23:38.863Z,212
2017-02-09T07:24:49.045Z,216
2017-02-09T07:25:59.361Z,220
2017-02-09T07:27:09.675Z,220
2017-02-09T07:28:20.378Z,224
2017-02-09T07:29:30.318Z,228
2017-02-09T07:30:41.293Z,232
2017-02-09T07:31:51.620Z,236
2017-02-09T07:33:02.343Z,240
2017-02-09T07:34:13.063Z,248
2017-02-09T07:35:23.810Z,256
2017-02-09T07:36:34.794Z,264
2017-02-09T07:37:45.128Z,268
2017-02-09T07:38:55.486Z,280
2017-02-09T07:40:05.896Z,288
2017-02-09T07:41:15.815Z,296
2017-02-09T07:42:26.850Z,296
2017-02-09T07:43:36.775Z,304
2017-02-09T07:44:47.492Z,316
2017-02-09T07:45:58.207Z,320
2017-02-09T07:47:08.949Z,332
2017-02-09T07:48:19.966Z,340
2017-02-09T07:49:29.473Z,348
2017-02-09T07:50:40.180Z,360
2017-02-09T07:51:50.926Z,372
2017-02-09T07:53:01.256Z,376
2017-02-09T07:54:11.873Z,380
2017-02-09T07:55:22.225Z,384
2017-02-09T07:56:32.538Z,392
2017-02-09T07:57:42.864Z,396
2017-02-09T07:58:53.181Z,396
2017-02-09T08:00:03.404Z,404
2017-02-09T08:01:13.309Z,408
2017-02-09T08:02:24.019Z,412
2017-02-09T08:03:33.969Z,416
2017-02-09T08:04:44.278Z,424
2017-02-09T08:05:55.245Z,432
2017-02-09T08:07:05.550Z,432
2017-02-09T08:08:15.473Z,440
2017-02-09T08:09:26.180Z,448
2017-02-09T08:10:36.493Z,460
2017-02-09T08:11:47.550Z,468
2017-02-09T08:12:57.886Z,476
2017-02-09T08:14:07.818Z,476
2017-02-09T08:15:18.390Z,484
2017-02-09T08:16:28.315Z,492
2017-02-09T08:17:38.923Z,492
2017-02-09T08:18:48.854Z,496
2017-02-09T08:19:59.867Z,500
2017-02-09T08:21:10.210Z,520
2017-02-09T08:22:20.537Z,532
2017-02-09T08:23:30.715Z,544
2017-02-09T08:24:40.644Z,548
2017-02-09T08:25:50.960Z,552
2017-02-09T08:27:01.319Z,552
2017-02-09T08:28:11.658Z,556
2017-02-09T08:29:22.239Z,564
2017-02-09T08:30:32.581Z,576
2017-02-09T08:31:42.925Z,588
2017-02-09T08:32:53.275Z,592
2017-02-09T08:34:03.994Z,596
2017-02-09T08:35:14.559Z,596
2017-02-09T08:36:24.877Z,604
2017-02-09T08:37:35.212Z,608
2017-02-09T08:38:45.542Z,616
2017-02-09T08:39:55.471Z,624
2017-02-09T08:41:05.644Z,632
2017-02-09T08:42:15.967Z,640
2017-02-09T08:43:25.499Z,648
2017-02-09T08:44:35.818Z,664
2017-02-09T08:45:46.579Z,668
2017-02-09T08:46:57.210Z,680
2017-02-09T08:48:07.926Z,688
2017-02-09T08:49:18.276Z,688
2017-02-09T08:50:28.999Z,696
2017-02-09T08:51:38.976Z,704
2017-02-09T08:52:49.576Z,712
2017-02-09T08:54:00.289Z,724
2017-02-09T08:55:10.216Z,732
2017-02-09T08:56:20.142Z,732
2017-02-09T08:57:30.852Z,740
2017-02-09T08:58:41.503Z,740
2017-02-09T08:59:52.224Z,744
2017-02-09T09:01:02.543Z,752
2017-02-09T09:02:13.487Z,760
2017-02-09T09:03:24.212Z,764
2017-02-09T09:04:34.850Z,764
2017-02-09T09:05:45.185Z,756
2017-02-09T09:06:55.509Z,752
2017-02-09T09:08:05.847Z,760
2017-02-09T09:09:16.406Z,768
2017-02-09T09:10:27.381Z,768
2017-02-09T09:11:37.717Z,768
2017-02-09T09:12:48.434Z,772
2017-02-09T09:13:58.739Z,784
2017-02-09T09:15:09.442Z,800
2017-02-09T09:16:20.746Z,816
2017-02-09T09:17:31.060Z,836
2017-02-09T09:18:41.368Z,844
2017-02-09T09:19:52.076Z,852
2017-02-09T09:21:02.026Z,860
2017-02-09T09:22:13.111Z,864
2017-02-09T09:23:23.134Z,864
2017-02-09T09:24:33.833Z,860
2017-02-09T09:25:44.168Z,864
2017-02-09T09:26:54.873Z,864
2017-02-09T09:28:05.458Z,868
2017-02-09T09:29:15.776Z,880
2017-02-09T09:30:26.478Z,876
2017-02-09T09:31:36.789Z,872
2017-02-09T09:32:47.493Z,876
2017-02-09T09:33:57.365Z,884
2017-02-09T09:35:07.271Z,892
2017-02-09T09:36:17.598Z,904
2017-02-09T09:37:28.440Z,912
2017-02-09T09:38:39.157Z,928
2017-02-09T09:39:49.918Z,944
2017-02-09T09:41:00.985Z,964
2017-02-09T09:42:11.716Z,968
2017-02-09T09:43:22.060Z,968
2017-02-09T09:44:32.819Z,984
2017-02-09T09:45:43.100Z,996
2017-02-09T09:46:53.471Z,1004
2017-02-09T09:48:04.231Z,1016
2017-02-09T09:49:14.600Z,1024
2017-02-09T09:50:24.540Z,1036
2017-02-09T09:51:35.506Z,1040
2017-02-09T09:52:46.219Z,1044
2017-02-09T09:53:56.959Z,1056
2017-02-09T09:55:07.699Z,1064
2017-02-09T09:56:18.030Z,1060
2017-02-09T09:57:28.771Z,1068
2017-02-09T09:58:39.095Z,1068
2017-02-09T09:59:49.824Z,1064
2017-02-09T10:01:00.163Z,1064
2017-02-09T10:02:09.953Z,1064
2017-02-09T10:03:20.686Z,1068
2017-02-09T10:04:31.035Z,1080
2017-02-09T10:05:41.818Z,1088
2017-02-09T10:06:52.147Z,1100
2017-02-09T10:08:03.164Z,1108
2017-02-09T10:09:13.485Z,1104
2017-02-09T10:10:23.807Z,1100
2017-02-09T10:11:34.589Z,1092
2017-02-09T10:12:44.555Z,1096
2017-02-09T10:13:55.529Z,1104
2017-02-09T10:15:06.253Z,1096
2017-02-09T10:16:16.555Z,1104
2017-02-09T10:17:26.867Z,1108
2017-02-09T10:18:37.176Z,1124
2017-02-09T10:19:47.387Z,1140
2017-02-09T10:20:56.913Z,1152
2017-02-09T10:22:07.630Z,1164
2017-02-09T10:23:18.328Z,1164
2017-02-09T10:24:27.853Z,1164
2017-02-09T10:25:38.498Z,1156
2017-02-09T10:26:49.218Z,1148
2017-02-09T10:27:59.914Z,1144
2017-02-09T10:29:09.853Z,1168
2017-02-09T10:30:20.161Z,1184
2017-02-09T10:31:30.840Z,1188
2017-02-09T10:32:41.526Z,1172
2017-02-09T10:33:51.832Z,1160
2017-02-09T10:35:02.549Z,1172
2017-02-09T10:36:13.247Z,1188
2017-02-09T10:37:23.024Z,1188
2017-02-09T10:38:33.352Z,1188
2017-02-09T10:39:43.258Z,1188
2017-02-09T10:40:53.553Z,1192
2017-02-09T10:42:03.867Z,1196
2017-02-09T10:43:14.668Z,1192
2017-02-09T10:44:24.985Z,1200
2017-02-09T10:45:35.715Z,1212
2017-02-09T10:46:45.276Z,1200
2017-02-09T10:47:56.070Z,1196
2017-02-09T10:49:06.704Z,1208
2017-02-09T10:50:17.049Z,1192
2017-02-09T10:51:26.969Z,1200
2017-02-09T10:52:37.715Z,1216
2017-02-09T10:53:48.421Z,1224
2017-02-09T10:54:58.642Z,1228
2017-02-09T10:56:09.358Z,1236
2017-02-09T10:57:19.658Z,1232
2017-02-09T10:58:29.610Z,1236
2017-02-09T10:59:40.351Z,1248
2017-02-09T11:00:50.385Z,1272
2017-02-09T11:02:01.329Z,1288
2017-02-09T11:03:11.630Z,1268
2017-02-09T11:04:21.558Z,1208
2017-02-09T11:05:32.265Z,1164
2017-02-09T11:06:42.840Z,1128
2017-02-09T11:07:53.570Z,1132
2017-02-09T11:09:03.879Z,1144
2017-02-09T11:10:14.606Z,1160
2017-02-09T11:11:24.930Z,1176
2017-02-09T11:12:34.705Z,1184
2017-02-09T11:13:43.831Z,1204
2017-02-09T11:14:54.155Z,1228
2017-02-09T11:16:04.489Z,1232
2017-02-09T11:17:14.390Z,1260
2017-02-09T11:18:24.566Z,1260
2017-02-09T11:19:34.479Z,1232
2017-02-09T11:20:45.212Z,1220
2017-02-09T11:21:55.516Z,1220
2017-02-09T11:23:05.829Z,1228
2017-02-09T11:24:15.985Z,1228
2017-02-09T11:25:25.499Z,1240
2017-02-09T11:26:35.435Z,1264
2017-02-09T11:27:45.755Z,1268
2017-02-09T11:28:56.101Z,1248
2017-02-09T11:30:07.114Z,1188
2017-02-09T11:31:17.037Z,1200
2017-02-09T11:32:26.179Z,1184
2017-02-09T11:33:36.102Z,1160
2017-02-09T11:34:45.994Z,1144
2017-02-09T11:35:56.556Z,1148
2017-02-09T11:37:06.873Z,1140
2017-02-09T11:38:17.154Z,1156
2017-02-09T11:39:27.138Z,1152
2017-02-09T11:40:37.440Z,1116
2017-02-09T11:41:48.386Z,1136
2017-02-09T11:42:59.121Z,1104
2017-02-09T11:44:09.815Z,1104
2017-02-09T11:45:20.533Z,1152
2017-02-09T11:46:31.249Z,1140
2017-02-09T11:47:41.800Z,1164
2017-02-09T11:48:52.107Z,1164
2017-02-09T11:50:02.018Z,1076
2017-02-09T11:51:12.357Z,1104
2017-02-09T11:52:22.323Z,1108
2017-02-09T11:53:32.909Z,1060
2017-02-09T11:54:44.502Z,1072
2017-02-09T11:55:55.341Z,1056
2017-02-09T11:57:05.505Z,1056
2017-02-09T11:58:15.832Z,1072
2017-02-09T11:59:26.472Z,1036
2017-02-09T12:00:37.409Z,1048
2017-02-09T12:01:48.130Z,1120
2017-02-09T12:02:58.062Z,1064
2017-02-09T12:04:08.401Z,1036
2017-02-09T12:05:19.429Z,1036
2017-02-09T12:06:29.755Z,1020
2017-02-09T12:07:40.101Z,992
2017-02-09T12:08:50.033Z,964
2017-02-09T12:09:59.967Z,932
2017-02-09T12:11:10.955Z,936
2017-02-09T12:12:21.316Z,916
2017-02-09T12:13:31.634Z,872
2017-02-09T12:14:42.354Z,876
2017-02-09T12:15:53.083Z,864
2017-02-09T12:17:03.673Z,848
2017-02-09T12:18:14.030Z,832
2017-02-09T12:19:24.357Z,836
2017-02-09T12:20:34.290Z,876
2017-02-09T12:21:44.600Z,888
2017-02-09T12:22:55.224Z,820
2017-02-09T12:24:05.954Z,836
2017-02-09T12:25:16.271Z,840
2017-02-09T12:26:26.989Z,804
2017-02-09T12:27:37.296Z,796
2017-02-09T12:28:47.908Z,776
2017-02-09T12:29:58.636Z,744
2017-02-09T12:31:08.952Z,756
2017-02-09T12:32:19.263Z,768
2017-02-09T12:33:28.795Z,760
2017-02-09T12:34:39.356Z,760
2017-02-09T12:35:49.260Z,744
2017-02-09T12:36:59.580Z,728
2017-02-09T12:38:09.898Z,712
2017-02-09T12:39:20.223Z,704
2017-02-09T12:40:30.399Z,692
2017-02-09T12:41:40.350Z,680
2017-02-09T12:42:50.267Z,676
2017-02-09T12:44:00.579Z,672
2017-02-09T12:45:11.279Z,672
2017-02-09T12:46:22.249Z,668
2017-02-09T12:47:32.191Z,664
2017-02-09T12:48:42.966Z,664
2017-02-09T12:49:53.686Z,664
2017-02-09T12:51:04.388Z,660
2017-02-09T12:52:14.584Z,660
2017-02-09T12:53:24.910Z,660
2017-02-09T12:54:35.634Z,656
2017-02-09T12:55:45.581Z,652
2017-02-09T12:56:56.312Z,652
2017-02-09T12:58:07.291Z,648
2017-02-09T12:59:17.608Z,652
2017-02-09T13:00:28.342Z,648
2017-02-09T13:01:39.066Z,644
2017-02-09T13:02:49.403Z,644
2017-02-09T13:03:59.983Z,640
2017-02-09T13:05:10.351Z,636
2017-02-09T13:06:20.681Z,632
2017-02-09T13:07:31.036Z,632
2017-02-09T13:08:41.734Z,632
2017-02-09T13:09:51.507Z,628
2017-02-09T13:11:01.426Z,624
2017-02-09T13:12:11.778Z,628
2017-02-09T13:13:20.904Z,624
2017-02-09T13:14:30.837Z,624
2017-02-09T13:15:41.455Z,624
2017-02-09T13:16:52.162Z,620
2017-02-09T13:18:02.871Z,616
2017-02-09T13:19:13.707Z,616
2017-02-09T13:20:23.655Z,612
2017-02-09T13:21:33.860Z,604
2017-02-09T13:22:44.212Z,600
2017-02-09T13:23:54.529Z,596
2017-02-09T13:25:05.235Z,592
2017-02-09T13:26:16.024Z,596
2017-02-09T13:27:27.049Z,596
2017-02-09T13:28:37.371Z,596
2017-02-09T13:29:46.911Z,592
2017-02-09T13:30:56.846Z,592
2017-02-09T13:32:07.160Z,596
2017-02-09T13:33:18.171Z,588
2017-02-09T13:34:28.488Z,584
2017-02-09T13:35:39.217Z,584
2017-02-09T13:36:49.554Z,576
2017-02-09T13:38:00.306Z,572
2017-02-09T13:39:10.527Z,576
2017-02-09T13:40:20.879Z,568
2017-02-09T13:41:31.218Z,564
2017-02-09T13:42:41.940Z,564
2017-02-09T13:43:52.642Z,556
2017-02-09T13:45:03.219Z,552
2017-02-09T13:46:13.564Z,548
2017-02-09T13:47:23.892Z,540
2017-02-09T13:48:34.648Z,524
2017-02-09T13:49:45.364Z,508
2017-02-09T13:50:56.375Z,500
2017-02-09T13:52:06.728Z,496
2017-02-09T13:53:16.667Z,500
2017-02-09T13:54:27.035Z,504
2017-02-09T13:55:37.368Z,512
2017-02-09T13:56:47.980Z,512
2017-02-09T13:57:57.520Z,512
2017-02-09T13:59:07.830Z,516
2017-02-09T14:00:17.745Z,516
2017-02-09T14:01:28.457Z,508
2017-02-09T14:02:39.034Z,504
2017-02-09T14:03:49.752Z,496
2017-02-09T14:04:59.693Z,492
2017-02-09T14:06:09.999Z,488
2017-02-09T14:07:20.737Z,476
2017-02-09T14:08:31.342Z,464
2017-02-09T14:09:41.647Z,456
2017-02-09T14:10:51.164Z,444
2017-02-09T14:12:00.686Z,440
2017-02-09T14:13:11.005Z,440
2017-02-09T14:14:21.549Z,452
2017-02-09T14:15:31.851Z,460
2017-02-09T14:16:42.542Z,472
2017-02-09T14:17:53.243Z,480
2017-02-09T14:19:03.552Z,480
2017-02-09T14:20:14.503Z,472
2017-02-09T14:21:25.206Z,472
2017-02-09T14:22:34.725Z,472
2017-02-09T14:23:45.422Z,468
2017-02-09T14:24:56.134Z,460
2017-02-09T14:26:06.291Z,456
2017-02-09T14:27:16.844Z,452
2017-02-09T14:28:26.754Z,448
2017-02-09T14:29:36.644Z,452
2017-02-09T14:30:46.548Z,448
2017-02-09T14:31:57.097Z,448
2017-02-09T14:33:07.025Z,448
2017-02-09T14:34:17.725Z,448
2017-02-09T14:35:28.022Z,448
2017-02-09T14:36:38.730Z,448
2017-02-09T14:37:48.492Z,448
2017-02-09T14:38:58.394Z,444
2017-02-09T14:40:08.291Z,432
2017-02-09T14:41:18.992Z,428
2017-02-09T14:42:29.282Z,420
2017-02-09T14:43:39.880Z,404
2017-02-09T14:44:50.494Z,392
2017-02-09T14:46:00.792Z,384
2017-02-09T14:47:10.703Z,372
2017-02-09T14:48:21.412Z,364
2017-02-09T14:49:31.576Z,360
2017-02-09T14:50:41.889Z,356
2017-02-09T14:51:52.203Z,348
2017-02-09T14:53:02.920Z,340
2017-02-09T14:54:12.891Z,336
2017-02-09T14:55:23.474Z,332
2017-02-09T14:56:32.994Z,332
2017-02-09T14:57:43.325Z,328
2017-02-09T14:58:53.643Z,332
2017-02-09T15:00:03.569Z,324
2017-02-09T15:01:13.798Z,324
2017-02-09T15:02:24.120Z,316
2017-02-09T15:03:34.046Z,312
2017-02-09T15:04:44.377Z,308
2017-02-09T15:05:54.707Z,308
2017-02-09T15:07:04.895Z,304
2017-02-09T15:08:15.295Z,296
2017-02-09T15:09:25.643Z,288
2017-02-09T15:10:34.786Z,284
2017-02-09T15:11:45.582Z,280
2017-02-09T15:12:55.805Z,272
2017-02-09T15:14:05.729Z,264
2017-02-09T15:15:16.075Z,260
2017-02-09T15:16:26.798Z,252
2017-02-09T15:17:37.537Z,248
2017-02-09T15:18:48.117Z,244
2017-02-09T15:19:58.476Z,236
2017-02-09T15:21:08.805Z,232
2017-02-09T15:22:19.134Z,224
2017-02-09T15:23:29.080Z,216
2017-02-09T15:24:39.259Z,212
2017-02-09T15:25:49.586Z,204
2017-02-09T15:27:00.321Z,200
2017-02-09T15:28:10.640Z,192
2017-02-09T15:29:20.967Z,188
2017-02-09T15:30:32.009Z,184
2017-02-09T15:31:42.744Z,176
2017-02-09T15:32:53.469Z,172
2017-02-09T15:34:04.210Z,168
2017-02-09T15:35:14.149Z,160
2017-02-09T15:36:24.380Z,152
2017-02-09T15:37:34.309Z,148
2017-02-09T15:38:44.645Z,140
2017-02-09T15:39:54.972Z,132
2017-02-09T15:41:05.321Z,128
2017-02-09T15:42:15.906Z,124
2017-02-09T15:43:26.228Z,116
2017-02-09T15:44:36.981Z,112
2017-02-09T15:45:47.742Z,108
2017-02-09T15:46:57.301Z,100
2017-02-09T15:48:07.929Z,96
2017-02-09T15:49:18.674Z,88
2017-02-09T15:50:29.029Z,84
2017-02-09T15:51:39.356Z,76
2017-02-09T15:52:49.303Z,72
2017-02-09T15:53:59.928Z,68
2017-02-09T15:55:10.268Z,68
2017-02-09T15:56:20.571Z,60
2017-02-09T15:57:30.073Z,56
2017-02-09T15:58:40.786Z,52
2017-02-09T15:59:51.392Z,48
2017-02-09T16:01:01.714Z,40
2017-02-09T16:02:12.047Z,40
2017-02-09T16:03:22.355Z,36
2017-02-09T16:04:33.074Z,32
2017-02-09T16:05:43.686Z,28
2017-02-09T16:06:54.004Z,28
2017-02-09T16:08:03.932Z,24
2017-02-09T16:09:14.233Z,20
2017-02-09T16:10:24.154Z,20
2017-02-09T16:11:34.370Z,16
2017-02-09T16:12:45.063Z,16
2017-02-09T16:13:55.357Z,16
2017-02-09T16:15:05.302Z,12
2017-02-09T16:16:15.632Z,12
2017-02-09T16:17:25.837Z,8
2017-02-09T16:18:35.789Z,8
2017-02-09T16:19:46.538Z,4
2017-02-09T16:20:56.449Z,8
2017-02-09T16:22:06.764Z,4
2017-02-09T16:23:16.965Z,4
2017-02-09T16:24:27.260Z,0
2017-02-09T16:25:37.946Z,4
2017-02-09T16:26:47.866Z,4
2017-02-09T16:27:57.767Z,0
2017-02-09T16:29:08.368Z,0
2017-02-09T16:30:17.876Z,0
2017-02-09T16:31:27.416Z,0
2017-02-09T16:32:38.103Z,0
2017-02-09T16:33:47.996Z,0
2017-02-09T16:34:58.203Z,0